Time;durP1;ratioP1;P1;durP2;ratioP2;P2;SDS_P1;SDS_P2;PMS_P1;PMS_P2;Temp;Humidity;BMP_temperature;BMP_pressure;BME280_temperature;BME280_humidity;BME280_pressure;Samples;Min_cycle;Max_cycle;Signal;HPM_P1;HPM_P2
2022/04/08 00:02:05;;;;;;;20.65;2.58;;;5.90;99.90;;;;;;5111846;28;20040;-64
2022/04/08 00:04:32;;;;;;;7.53;1.95;;;5.90;99.90;;;;;;5093281;28;20534;-65
2022/04/08 00:06:58;;;;;;;4.40;1.20;;;5.80;99.90;;;;;;5077244;28;20460;-64
2022/04/08 00:09:24;;;;;;;5.57;1.42;;;5.90;99.90;;;;;;5111160;28;20047;-72
2022/04/08 00:11:50;;;;;;;5.97;1.25;;;5.80;99.90;;;;;;5093608;28;20051;-64
2022/04/08 00:14:18;;;;;;;6.07;1.73;;;5.80;99.90;;;;;;5093215;28;20585;-67
2022/04/08 00:16:45;;;;;;;9.43;1.90;;;5.80;99.90;;;;;;5111645;28;20058;-65
2022/04/08 00:19:10;;;;;;;7.50;1.45;;;5.80;99.90;;;;;;5093276;28;20039;-65
2022/04/08 00:21:36;;;;;;;6.18;1.33;;;5.70;99.90;;;;;;5109756;28;20043;-68
2022/04/08 00:24:03;;;;;;;3.15;1.13;;;5.70;99.90;;;;;;5111342;28;20112;-65
2022/04/08 00:26:29;;;;;;;3.92;1.25;;;5.60;99.90;;;;;;5110893;28;20502;-64
2022/04/08 00:28:54;;;;;;;3.92;1.08;;;5.40;99.90;;;;;;5111452;28;20496;-66
2022/04/08 00:31:21;;;;;;;3.30;0.80;;;5.20;99.90;;;;;;5076146;28;20083;-65
2022/04/08 00:33:46;;;;;;;3.30;0.77;;;5.20;99.90;;;;;;5111634;28;20105;-64
2022/04/08 00:36:12;;;;;;;7.03;1.20;;;5.10;99.90;;;;;;5111185;28;20487;-69
2022/04/08 00:38:38;;;;;;;4.47;1.02;;;5.00;99.90;;;;;;5110858;28;20047;-65
2022/04/08 00:41:03;;;;;;;3.50;1.75;;;4.90;99.90;;;;;;5111032;28;20079;-65
2022/04/08 00:43:37;;;;;;;7.68;1.58;;;4.90;99.90;;;;;;5111114;28;20083;-65
2022/04/08 00:46:06;;;;;;;6.55;1.80;;;4.90;99.90;;;;;;5093134;28;20051;-68
2022/04/08 00:48:32;;;;;;;8.77;1.50;;;4.90;99.90;;;;;;5111720;28;20127;-65
2022/04/08 00:50:59;;;;;;;13.20;2.80;;;4.90;99.90;;;;;;5115527;28;20048;-65
2022/04/08 00:53:25;;;;;;;13.50;2.55;;;4.90;99.90;;;;;;5115082;28;20055;-65
2022/04/08 00:55:51;;;;;;;6.43;1.98;;;4.90;99.90;;;;;;5115453;28;20046;-65
2022/04/08 00:58:17;;;;;;;6.20;2.03;;;4.90;99.90;;;;;;5080173;28;20481;-71
2022/04/08 01:00:43;;;;;;;12.52;2.20;;;4.90;99.90;;;;;;5115155;28;20183;-66
2022/04/08 01:03:09;;;;;;;9.43;2.25;;;4.90;99.90;;;;;;5115392;28;20075;-65
2022/04/08 01:05:35;;;;;;;11.55;2.38;;;4.90;99.90;;;;;;5096568;28;20370;-65
2022/04/08 01:08:03;;;;;;;10.25;2.33;;;4.80;99.90;;;;;;5114965;28;20134;-67
2022/04/08 01:10:29;;;;;;;11.75;2.53;;;4.70;99.90;;;;;;5114667;28;20051;-65
2022/04/08 01:12:55;;;;;;;11.35;2.67;;;4.90;99.90;;;;;;5096979;28;20370;-66
2022/04/08 01:15:22;;;;;;;10.55;3.03;;;4.60;99.90;;;;;;5114887;28;20036;-73
2022/04/08 01:17:48;;;;;;;17.33;2.97;;;4.60;99.90;;;;;;5114885;28;20039;-66
2022/04/08 01:20:15;;;;;;;9.68;2.75;;;4.80;99.90;;;;;;5114890;28;20047;-65
2022/04/08 01:22:42;;;;;;;10.65;2.53;;;4.60;99.90;;;;;;5114566;28;20627;-68
2022/04/08 01:25:09;;;;;;;8.73;1.75;;;4.60;99.90;;;;;;5096678;28;20450;-65
2022/04/08 01:27:35;;;;;;;12.50;2.47;;;4.60;99.90;;;;;;5113921;28;20135;-65
2022/04/08 01:30:03;;;;;;;14.50;2.70;;;4.60;99.90;;;;;;5079838;28;20075;-65
2022/04/08 01:32:29;;;;;;;10.00;2.88;;;4.70;99.90;;;;;;5114297;28;20048;-65
2022/04/08 01:34:58;;;;;;;11.15;2.47;;;4.70;99.90;;;;;;5096447;28;20137;-65
2022/04/08 01:37:23;;;;;;;7.97;2.15;;;4.70;99.90;;;;;;5114165;28;20131;-73
2022/04/08 01:39:49;;;;;;;11.95;2.28;;;4.70;99.90;;;;;;5114572;28;20130;-68
2022/04/08 01:42:16;;;;;;;11.93;2.45;;;4.80;99.90;;;;;;5114503;28;20139;-65
2022/04/08 01:44:41;;;;;;;14.70;2.58;;;4.80;99.90;;;;;;5113757;28;20505;-65
2022/04/08 01:47:07;;;;;;;12.88;2.13;;;4.80;99.90;;;;;;5114437;28;20082;-65
2022/04/08 01:49:33;;;;;;;11.88;2.58;;;4.80;99.90;;;;;;5095941;28;20050;-67
2022/04/08 01:51:59;;;;;;;7.57;2.17;;;4.80;99.90;;;;;;5114353;28;20452;-67
2022/04/08 01:54:24;;;;;;;7.57;1.70;;;4.80;99.90;;;;;;5114030;28;20047;-73
2022/04/08 01:56:50;;;;;;;8.13;1.85;;;4.80;99.90;;;;;;5095413;28;20050;-65
2022/04/08 01:59:16;;;;;;;10.88;2.25;;;4.80;99.90;;;;;;5114138;28;20051;-65
2022/04/08 02:01:42;;;;;;;13.38;2.40;;;4.80;99.90;;;;;;5094552;28;20050;-66
2022/04/08 02:04:08;;;;;;;10.55;1.90;;;4.80;99.90;;;;;;5095797;28;20051;-66
2022/04/08 02:06:36;;;;;;;9.73;2.38;;;4.80;99.90;;;;;;5095717;28;20127;-65
2022/04/08 02:09:03;;;;;;;7.97;2.03;;;4.80;99.90;;;;;;5113904;28;20090;-64
2022/04/08 02:11:29;;;;;;;6.22;1.88;;;4.90;99.90;;;;;;5095158;28;20473;-69
2022/04/08 02:13:54;;;;;;;10.63;1.88;;;4.80;99.90;;;;;;5113922;28;20043;-67
2022/04/08 02:16:20;;;;;;;10.18;2.25;;;4.80;99.90;;;;;;5113753;28;20088;-64
2022/04/08 02:18:46;;;;;;;11.68;2.15;;;4.80;99.90;;;;;;5095146;28;20044;-64
2022/04/08 02:21:12;;;;;;;13.20;2.85;;;4.80;99.90;;;;;;5095628;28;20530;-64
2022/04/08 02:23:38;;;;;;;7.13;1.90;;;4.80;99.90;;;;;;5095211;28;20043;-65
2022/04/08 02:26:05;;;;;;;7.15;2.40;;;4.80;99.90;;;;;;5113159;28;20044;-65
2022/04/08 02:28:34;;;;;;;13.27;2.38;;;4.80;99.90;;;;;;5113124;28;20450;-72
2022/04/08 02:31:00;;;;;;;8.98;2.03;;;4.80;99.90;;;;;;5095596;28;20056;-65
2022/04/08 02:33:26;;;;;;;10.60;2.00;;;4.80;99.90;;;;;;5113718;28;20044;-65
2022/04/08 02:35:52;;;;;;;14.90;1.98;;;4.90;99.90;;;;;;5112973;28;20043;-65
2022/04/08 02:38:17;;;;;;;10.30;2.17;;;4.90;99.90;;;;;;5095451;28;20069;-66
2022/04/08 02:40:43;;;;;;;12.02;2.72;;;4.90;99.90;;;;;;5113161;28;20051;-65
2022/04/08 02:43:09;;;;;;;8.63;2.10;;;4.90;99.90;;;;;;5095559;28;20051;-65
2022/04/08 02:45:36;;;;;;;12.15;2.67;;;4.80;99.90;;;;;;5094992;28;20047;-65
2022/04/08 02:48:05;;;;;;;11.77;1.98;;;4.80;99.90;;;;;;5078287;28;20477;-67
2022/04/08 02:50:31;;;;;;;12.15;2.38;;;4.70;99.90;;;;;;5113317;28;20043;-70
2022/04/08 02:52:56;;;;;;;10.10;2.08;;;4.70;99.90;;;;;;5112455;28;20370;-65
2022/04/08 02:55:22;;;;;;;8.10;1.73;;;4.60;99.90;;;;;;5094985;28;20043;-67
2022/04/08 02:57:50;;;;;;;13.18;2.83;;;4.60;99.90;;;;;;5077442;28;20106;-65
2022/04/08 03:00:17;;;;;;;10.73;2.53;;;4.50;99.90;;;;;;5113127;28;20123;-66
2022/04/08 03:02:47;;;;;;;8.70;2.50;;;4.40;99.90;;;;;;5112658;28;20065;-65
2022/04/08 03:05:14;;;;;;;9.52;2.03;;;4.40;99.90;;;;;;5112936;28;20039;-65
2022/04/08 03:07:40;;;;;;;6.78;2.10;;;4.40;99.90;;;;;;5094056;28;20150;-65
2022/04/08 03:10:08;;;;;;;9.45;2.25;;;4.40;99.90;;;;;;5112942;28;20082;-65
2022/04/08 03:12:34;;;;;;;6.20;1.88;;;4.40;99.90;;;;;;5094259;28;20083;-65
2022/04/08 03:15:00;;;;;;;5.93;1.55;;;4.30;99.90;;;;;;5094376;28;20043;-65
2022/04/08 03:17:26;;;;;;;4.60;1.50;;;4.40;99.90;;;;;;5112759;28;20040;-67
2022/04/08 03:19:52;;;;;;;4.70;1.50;;;4.30;99.90;;;;;;5112136;28;20048;-67
2022/04/08 03:22:20;;;;;;;7.95;1.88;;;4.30;99.90;;;;;;5112724;28;20544;-65
2022/04/08 03:24:51;;;;;;;7.88;1.75;;;4.40;99.90;;;;;;5112109;28;20043;-67
2022/04/08 03:27:19;;;;;;;5.55;1.95;;;4.20;99.90;;;;;;5094247;28;20097;-67
2022/04/08 03:29:45;;;;;;;6.75;1.75;;;4.20;99.90;;;;;;5111928;28;20039;-66
2022/04/08 03:32:11;;;;;;;9.32;1.70;;;4.30;99.90;;;;;;5094613;28;20046;-65
2022/04/08 03:34:38;;;;;;;6.00;1.75;;;4.20;99.90;;;;;;5112467;28;20122;-74
2022/04/08 03:37:05;;;;;;;9.75;2.15;;;4.30;99.90;;;;;;5112406;28;20075;-67
2022/04/08 03:39:31;;;;;;;6.85;1.50;;;4.30;99.90;;;;;;5112296;28;20113;-65
2022/04/08 03:41:57;;;;;;;7.53;1.48;;;4.40;99.90;;;;;;5111920;28;20498;-69
2022/04/08 03:44:23;;;;;;;5.60;2.05;;;4.40;99.90;;;;;;5094079;28;20123;-65
2022/04/08 03:46:49;;;;;;;10.30;1.80;;;4.40;99.90;;;;;;5093918;28;20196;-66
2022/04/08 03:49:15;;;;;;;8.70;2.30;;;4.40;99.90;;;;;;5112286;28;20063;-66
2022/04/08 03:51:45;;;;;;;5.07;1.98;;;4.40;99.90;;;;;;5111601;28;20130;-72
2022/04/08 03:54:14;;;;;;;11.48;2.47;;;4.40;99.90;;;;;;5112173;28;20101;-66
2022/04/08 03:56:43;;;;;;;8.88;2.20;;;4.50;99.90;;;;;;5093786;28;20388;-74
2022/04/08 03:59:10;;;;;;;9.40;1.92;;;4.40;99.90;;;;;;5112018;28;20052;-65
2022/04/08 04:01:36;;;;;;;6.25;1.90;;;4.40;99.90;;;;;;5111866;28;20047;-65
2022/04/08 04:04:03;;;;;;;7.97;1.95;;;4.50;99.90;;;;;;5093312;28;20587;-66
2022/04/08 04:06:30;;;;;;;10.57;2.08;;;4.50;99.90;;;;;;5111879;28;20496;-65
2022/04/08 04:08:55;;;;;;;5.05;1.50;;;4.50;99.90;;;;;;5093355;28;20054;-66
2022/04/08 04:11:21;;;;;;;3.92;1.50;;;4.60;99.90;;;;;;5111710;28;20043;-66
2022/04/08 04:13:48;;;;;;;7.97;1.77;;;4.30;99.90;;;;;;5111626;28;20161;-65
2022/04/08 04:16:16;;;;;;;7.72;2.67;;;4.10;99.90;;;;;;5111858;28;20083;-66
2022/04/08 04:18:42;;;;;;;6.57;1.60;;;4.10;99.90;;;;;;5111951;28;20085;-70
2022/04/08 04:21:08;;;;;;;4.55;1.55;;;4.00;99.90;;;;;;5076506;28;20431;-66
2022/04/08 04:23:34;;;;;;;5.93;1.60;;;3.90;99.90;;;;;;5114008;28;20104;-65
2022/04/08 04:26:00;;;;;;;4.65;1.63;;;3.80;99.90;;;;;;5118261;28;20063;-66
2022/04/08 04:28:33;;;;;;;7.45;1.85;;;3.80;99.90;;;;;;5118609;28;20043;-65
2022/04/08 04:31:04;;;;;;;7.43;2.10;;;3.70;99.90;;;;;;5118410;28;20055;-65
2022/04/08 04:33:31;;;;;;;8.93;2.00;;;3.70;99.90;;;;;;5118643;28;20090;-65
2022/04/08 04:35:57;;;;;;;5.63;1.95;;;3.70;99.90;;;;;;5118140;28;20077;-65
2022/04/08 04:38:23;;;;;;;7.50;1.95;;;3.70;99.90;;;;;;5100248;28;20451;-65
2022/04/08 04:40:49;;;;;;;6.80;1.90;;;3.70;99.90;;;;;;5118200;28;20040;-66
2022/04/08 04:43:15;;;;;;;5.32;2.08;;;3.80;99.90;;;;;;5118465;28;20084;-66
2022/04/08 04:45:41;;;;;;;9.32;1.90;;;3.70;99.90;;;;;;5118431;28;20040;-65
2022/04/08 04:48:08;;;;;;;5.47;2.03;;;3.70;99.90;;;;;;5117840;28;20044;-65
2022/04/08 04:50:33;;;;;;;5.30;1.80;;;3.80;99.90;;;;;;5118534;28;20409;-68
2022/04/08 04:52:59;;;;;;;11.30;2.20;;;3.70;99.90;;;;;;5118027;28;20040;-66
2022/04/08 04:55:25;;;;;;;2.55;1.65;;;3.70;99.90;;;;;;5118155;28;20036;-66
2022/04/08 04:57:51;;;;;;;11.40;1.92;;;3.80;99.90;;;;;;5099200;28;20041;-66
2022/04/08 05:00:18;;;;;;;6.22;1.90;;;3.80;99.90;;;;;;5100056;28;20101;-65
2022/04/08 05:02:44;;;;;;;7.05;2.38;;;3.80;99.90;;;;;;5118232;28;20047;-66
2022/04/08 05:05:10;;;;;;;6.90;2.08;;;3.80;99.90;;;;;;5099505;28;20616;-65
2022/04/08 05:07:37;;;;;;;6.72;1.73;;;3.80;99.90;;;;;;5118039;28;20040;-65
2022/04/08 05:10:04;;;;;;;5.72;2.00;;;3.80;99.90;;;;;;5117776;28;20052;-66
2022/04/08 05:12:30;;;;;;;4.32;1.75;;;3.80;99.90;;;;;;5100022;28;20114;-65
2022/04/08 05:14:56;;;;;;;7.75;1.73;;;3.80;99.90;;;;;;5117665;28;20047;-68
2022/04/08 05:17:22;;;;;;;4.78;1.70;;;3.80;99.90;;;;;;5082923;28;20187;-64
2022/04/08 05:19:48;;;;;;;8.98;2.55;;;3.80;99.90;;;;;;5118328;28;20056;-65
2022/04/08 05:22:14;;;;;;;7.28;1.60;;;3.80;99.90;;;;;;5117543;28;20443;-66
2022/04/08 05:24:40;;;;;;;4.72;1.92;;;3.90;99.90;;;;;;5099865;28;20051;-65
2022/04/08 05:27:06;;;;;;;7.53;1.65;;;3.80;99.90;;;;;;5117518;28;20059;-66
2022/04/08 05:29:32;;;;;;;7.00;2.15;;;3.80;99.90;;;;;;5099645;28;20092;-64
2022/04/08 05:31:58;;;;;;;13.07;1.85;;;3.80;99.90;;;;;;5082418;28;20050;-65
2022/04/08 05:34:26;;;;;;;4.75;1.60;;;3.80;99.90;;;;;;5082406;28;20051;-65
2022/04/08 05:36:52;;;;;;;4.78;2.20;;;3.90;99.90;;;;;;5080137;28;20188;-65
2022/04/08 05:39:18;;;;;;;5.57;1.77;;;4.00;99.90;;;;;;5114454;28;20123;-65
2022/04/08 05:41:43;;;;;;;5.00;1.50;;;4.50;99.90;;;;;;5114600;28;20051;-65
2022/04/08 05:44:09;;;;;;;5.43;1.55;;;4.90;99.90;;;;;;5114198;28;20043;-65
2022/04/08 05:46:35;;;;;;;6.38;2.10;;;5.30;99.90;;;;;;5114378;28;20035;-66
2022/04/08 05:49:01;;;;;;;7.72;1.63;;;5.60;99.90;;;;;;5113927;28;20044;-64
2022/04/08 05:51:27;;;;;;;7.30;2.03;;;5.50;99.90;;;;;;5096177;28;20066;-65
2022/04/08 05:53:53;;;;;;;5.97;1.50;;;5.30;99.90;;;;;;5096147;28;20040;-65
2022/04/08 05:56:18;;;;;;;5.30;1.45;;;5.20;99.90;;;;;;5095492;28;20043;-65
2022/04/08 05:58:44;;;;;;;4.80;1.52;;;5.10;99.90;;;;;;5096114;28;20396;-65
2022/04/08 06:01:10;;;;;;;4.07;1.55;;;4.90;99.90;;;;;;5113751;28;20043;-65
2022/04/08 06:03:36;;;;;;;3.83;1.35;;;4.80;99.90;;;;;;5095899;28;20092;-65
2022/04/08 06:06:03;;;;;;;7.03;1.52;;;4.70;99.90;;;;;;5113445;28;20046;-65
2022/04/08 06:08:29;;;;;;;5.10;2.00;;;4.70;99.90;;;;;;5113628;28;20447;-65
2022/04/08 06:10:55;;;;;;;6.00;2.15;;;4.80;99.90;;;;;;5113802;28;20104;-65
2022/04/08 06:13:24;;;;;;;7.85;1.85;;;5.00;99.90;;;;;;5113053;28;20082;-66
2022/04/08 06:15:51;;;;;;;5.60;1.77;;;5.20;99.90;;;;;;5095218;28;20075;-65
2022/04/08 06:18:18;;;;;;;6.85;1.58;;;5.80;99.90;;;;;;5095131;28;20059;-64
2022/04/08 06:20:44;;;;;;;4.35;1.42;;;6.20;99.90;;;;;;5113645;28;20562;-65
2022/04/08 06:23:10;;;;;;;8.27;1.63;;;6.60;99.90;;;;;;5113233;28;20051;-66
2022/04/08 06:25:36;;;;;;;7.55;1.98;;;7.50;99.90;;;;;;5113057;28;20056;-66
2022/04/08 06:28:04;;;;;;;3.38;1.33;;;8.30;99.90;;;;;;5112899;28;20089;-70
2022/04/08 06:30:31;;;;;;;4.40;1.67;;;9.00;99.90;;;;;;5095487;28;20048;-65
2022/04/08 06:32:57;;;;;;;4.80;1.60;;;9.30;99.90;;;;;;5113468;28;20168;-68
2022/04/08 06:35:22;;;;;;;6.05;1.77;;;9.70;99.90;;;;;;5112188;28;20047;-68
2022/04/08 06:37:49;;;;;;;7.70;2.40;;;9.90;99.90;;;;;;5113188;28;20119;-65
2022/04/08 06:40:14;;;;;;;6.65;1.80;;;10.30;99.90;;;;;;5077656;28;20136;-65
2022/04/08 06:42:41;;;;;;;6.57;1.73;;;10.70;99.90;;;;;;5113227;28;20083;-65
2022/04/08 06:45:08;;;;;;;7.30;1.88;;;11.00;99.90;;;;;;5112820;28;20044;-66
2022/04/08 06:47:34;;;;;;;6.78;2.03;;;11.40;99.90;;;;;;5112583;28;20090;-69
2022/04/08 06:49:59;;;;;;;5.10;1.90;;;11.70;99.90;;;;;;5094612;28;20119;-65
2022/04/08 06:52:25;;;;;;;5.38;2.00;;;12.10;99.90;;;;;;5112305;28;20378;-65
2022/04/08 06:54:51;;;;;;;5.97;1.70;;;12.20;99.90;;;;;;5112951;28;20046;-65
2022/04/08 06:57:16;;;;;;;6.20;2.03;;;12.50;99.90;;;;;;5093656;28;20408;-67
2022/04/08 06:59:42;;;;;;;6.88;1.85;;;12.70;99.90;;;;;;5094341;28;20058;-66
2022/04/08 07:02:09;;;;;;;6.13;1.98;;;12.70;99.90;;;;;;5112481;28;20096;-66
2022/04/08 07:04:36;;;;;;;5.35;2.13;;;13.20;99.90;;;;;;5094575;28;20442;-66
2022/04/08 07:07:04;;;;;;;4.47;1.77;;;13.30;99.90;;;;;;5094652;28;20092;-67
2022/04/08 07:09:32;;;;;;;7.95;2.03;;;13.40;99.90;;;;;;5112481;28;20047;-65
2022/04/08 07:11:59;;;;;;;7.30;2.00;;;13.70;99.90;;;;;;5112723;28;20102;-66
2022/04/08 07:14:24;;;;;;;7.55;1.88;;;13.70;99.90;;;;;;5093960;28;20312;-65
2022/04/08 07:16:50;;;;;;;6.57;1.92;;;13.90;99.90;;;;;;5112261;28;20046;-65
2022/04/08 07:19:16;;;;;;;5.63;1.63;;;14.10;99.90;;;;;;5076678;28;20050;-65
2022/04/08 07:21:41;;;;;;;7.07;1.88;;;14.60;99.90;;;;;;5094425;28;20070;-66
2022/04/08 07:24:07;;;;;;;12.38;1.90;;;14.80;99.90;;;;;;5077554;28;20081;-75
2022/04/08 07:26:33;;;;;;;7.05;2.00;;;14.90;99.90;;;;;;5111872;28;20116;-66
2022/04/08 07:29:00;;;;;;;7.10;1.85;;;14.60;99.90;;;;;;5094741;28;20048;-65
2022/04/08 07:31:26;;;;;;;6.63;1.83;;;14.80;99.90;;;;;;5094031;28;20047;-65
2022/04/08 07:33:52;;;;;;;6.43;1.88;;;15.20;99.90;;;;;;5094364;28;20127;-66
2022/04/08 07:36:17;;;;;;;10.75;2.42;;;15.00;99.40;;;;;;5111812;28;20172;-67
2022/04/08 07:38:43;;;;;;;6.85;2.00;;;15.00;99.60;;;;;;5094024;28;20116;-66
2022/04/08 07:41:09;;;;;;;8.57;1.90;;;14.80;99.90;;;;;;5111928;28;20054;-74
2022/04/08 07:43:35;;;;;;;7.75;1.80;;;14.70;99.90;;;;;;5093915;28;20104;-68
2022/04/08 07:46:01;;;;;;;7.78;2.05;;;14.30;99.90;;;;;;5094205;28;20055;-66
2022/04/08 07:48:27;;;;;;;6.50;2.05;;;13.60;99.90;;;;;;5111737;28;20172;-65
2022/04/08 07:50:54;;;;;;;6.57;1.70;;;13.00;99.90;;;;;;5111964;28;20048;-67
2022/04/08 07:53:20;;;;;;;4.60;1.30;;;12.70;99.90;;;;;;5111352;28;20047;-67
2022/04/08 07:55:45;;;;;;;5.78;1.52;;;13.70;99.90;;;;;;5111983;28;20096;-68
2022/04/08 07:58:11;;;;;;;3.38;1.30;;;14.50;99.90;;;;;;5110820;28;20039;-76
2022/04/08 08:00:37;;;;;;;2.60;1.20;;;15.30;99.30;;;;;;5111671;28;20048;-66
2022/04/08 08:03:03;;;;;;;4.47;1.30;;;16.30;98.40;;;;;;5111886;28;20130;-66
2022/04/08 08:05:31;;;;;;;5.15;1.67;;;17.00;97.30;;;;;;5093040;28;20050;-68
2022/04/08 08:07:59;;;;;;;3.75;1.40;;;16.70;95.00;;;;;;5060246;28;20192;-65
2022/04/08 08:10:24;;;;;;;6.55;1.73;;;17.20;95.10;;;;;;5111030;28;20050;-64
2022/04/08 08:12:51;;;;;;;5.28;1.60;;;17.70;94.90;;;;;;5093846;28;20127;-64
2022/04/08 08:15:18;;;;;;;4.53;1.65;;;18.00;93.30;;;;;;5111423;28;20079;-65
2022/04/08 08:17:44;;;;;;;5.10;1.70;;;18.40;92.80;;;;;;5093869;28;20055;-68
2022/04/08 08:20:11;;;;;;;6.30;1.55;;;18.60;91.70;;;;;;5111820;28;20039;-65
2022/04/08 08:22:41;;;;;;;7.03;1.75;;;18.50;90.80;;;;;;5111275;28;20062;-65
2022/04/08 08:25:07;;;;;;;4.95;1.63;;;18.60;91.20;;;;;;5093540;28;20051;-65
2022/04/08 08:28:08;;;;;;;4.40;1.50;;;18.80;90.10;;;;;;5075891;28;20059;-64
2022/04/08 08:30:35;;;;;;;3.63;1.60;;;19.00;86.80;;;;;;5008306;28;20125;-66
2022/04/08 08:33:04;;;;;;;5.30;1.88;;;19.10;87.30;;;;;;5073191;28;20432;-68
2022/04/08 08:35:32;;;;;;;3.75;1.40;;;19.30;85.60;;;;;;5111219;28;20047;-64
2022/04/08 08:37:59;;;;;;;5.63;1.42;;;18.80;85.80;;;;;;5111335;28;20497;-64
2022/04/08 08:40:25;;;;;;;4.65;1.40;;;17.60;87.80;;;;;;5111176;28;20082;-64
2022/04/08 08:42:54;;;;;;;4.63;1.42;;;16.20;88.20;;;;;;5093544;28;20044;-65
2022/04/08 08:45:19;;;;;;;5.25;1.42;;;15.90;90.00;;;;;;5110968;28;20043;-71
2022/04/08 08:47:47;;;;;;;5.03;1.33;;;16.30;89.60;;;;;;5093145;28;20046;-64
2022/04/08 08:50:13;;;;;;;5.55;1.33;;;15.80;86.70;;;;;;5093383;28;20044;-64
2022/04/08 08:52:43;;;;;;;6.25;1.40;;;14.80;88.50;;;;;;5111168;28;20690;-64
2022/04/08 08:55:09;;;;;;;5.93;1.35;;;14.20;90.90;;;;;;5076864;28;20048;-65
2022/04/08 08:57:34;;;;;;;6.60;1.58;;;14.70;90.80;;;;;;5092589;28;20063;-65
2022/04/08 09:00:13;;;;;;;5.70;1.58;;;15.50;90.20;;;;;;5111510;28;20047;-64
2022/04/08 09:02:40;;;;;;;4.55;1.25;;;16.30;89.20;;;;;;5110580;28;20358;-64
2022/04/08 09:05:13;;;;;;;4.85;1.65;;;17.20;89.30;;;;;;5111189;28;20541;-65
2022/04/08 09:07:38;;;;;;;4.93;1.95;;;17.80;86.60;;;;;;5110673;28;20054;-65
2022/04/08 09:10:05;;;;;;;2.90;1.20;;;17.70;84.90;;;;;;5112407;28;20134;-65
2022/04/08 09:12:30;;;;;;;5.03;1.73;;;16.50;87.90;;;;;;5114833;28;20100;-64
2022/04/08 09:14:58;;;;;;;2.92;1.40;;;15.50;91.20;;;;;;5115467;28;20047;-65
2022/04/08 09:17:25;;;;;;;6.38;1.48;;;14.80;93.10;;;;;;5114612;28;20048;-72
2022/04/08 09:19:54;;;;;;;5.00;1.50;;;14.30;94.60;;;;;;5114474;28;20040;-65
2022/04/08 09:22:21;;;;;;;6.20;1.73;;;14.20;96.10;;;;;;5095621;28;20051;-64
2022/04/08 09:24:48;;;;;;;7.10;1.75;;;14.80;95.90;;;;;;5078743;28;20098;-65
2022/04/08 09:27:14;;;;;;;6.97;2.05;;;15.60;94.90;;;;;;5114191;28;20059;-65
2022/04/08 09:29:44;;;;;;;4.70;1.58;;;16.20;93.90;;;;;;5113771;28;20040;-65
2022/04/08 09:32:12;;;;;;;5.43;1.90;;;15.70;93.10;;;;;;5114262;28;20540;-64
2022/04/08 09:34:40;;;;;;;5.40;1.52;;;15.30;93.60;;;;;;5113069;28;20508;-64
2022/04/08 09:37:13;;;;;;;6.80;1.38;;;14.90;94.10;;;;;;5113822;28;20408;-64
2022/04/08 09:40:03;;;;;;;7.35;2.00;;;14.10;93.00;;;;;;5113506;28;20052;-67
2022/04/08 09:42:47;;;;;;;4.63;1.15;;;13.50;94.60;;;;;;5113670;28;20074;-64
2022/04/08 09:45:14;;;;;;;3.92;1.30;;;13.20;96.10;;;;;;5095775;28;20044;-65
2022/04/08 09:47:41;;;;;;;3.67;1.33;;;13.00;96.80;;;;;;5094954;28;20047;-65
2022/04/08 09:50:11;;;;;;;5.43;1.67;;;13.00;96.60;;;;;;5113819;28;20043;-63
2022/04/08 09:52:40;;;;;;;3.38;1.20;;;13.20;96.60;;;;;;5095618;28;20056;-65
2022/04/08 09:55:07;;;;;;;6.25;1.60;;;13.20;97.30;;;;;;5094312;28;20416;-67
2022/04/08 09:57:38;;;;;;;5.70;1.50;;;13.20;97.30;;;;;;5112880;28;20492;-69
2022/04/08 10:00:05;;;;;;;6.30;1.63;;;13.20;96.70;;;;;;5113230;28;20058;-64
2022/04/08 10:02:35;;;;;;;4.45;1.52;;;13.30;96.90;;;;;;5113303;28;20122;-67
2022/04/08 10:05:02;;;;;;;3.85;1.30;;;13.30;96.50;;;;;;5113796;28;20130;-65
2022/04/08 10:07:29;;;;;;;6.53;1.65;;;13.60;96.60;;;;;;5113494;28;20104;-70
2022/04/08 10:10:28;;;;;;;5.10;1.33;;;13.70;97.50;;;;;;5095273;28;20055;-64
2022/04/08 10:13:24;;;;;;;4.13;1.30;;;13.70;97.10;;;;;;5056148;28;20139;-66
2022/04/08 10:16:04;;;;;;;3.42;1.17;;;13.10;95.70;;;;;;5094546;28;20491;-64
2022/04/08 10:18:39;;;;;;;3.55;1.33;;;12.40;96.30;;;;;;5112659;28;20051;-69
2022/04/08 10:21:05;;;;;;;3.10;1.23;;;12.10;97.40;;;;;;5112581;28;20070;-64
2022/04/08 10:23:39;;;;;;;4.63;1.15;;;11.90;97.20;;;;;;5112998;28;20497;-69
2022/04/08 10:26:15;;;;;;;3.45;1.30;;;11.70;96.90;;;;;;5110337;28;20108;-65
2022/04/08 10:28:41;;;;;;;2.08;0.93;;;11.80;97.00;;;;;;5093094;28;20083;-64
2022/04/08 10:31:20;;;;;;;6.10;1.23;;;12.10;97.40;;;;;;5095571;28;20093;-66
2022/04/08 10:33:52;;;;;;;6.53;1.50;;;12.20;97.00;;;;;;5113222;28;20050;-64
2022/04/08 10:36:18;;;;;;;6.85;1.60;;;12.40;96.40;;;;;;5112954;28;20084;-64
2022/04/08 10:38:44;;;;;;;5.97;1.50;;;12.30;96.70;;;;;;5077822;28;20538;-63
2022/04/08 10:41:11;;;;;;;7.60;2.15;;;12.50;97.10;;;;;;5113201;28;20043;-64
2022/04/08 10:43:47;;;;;;;5.25;1.33;;;12.50;97.70;;;;;;5094996;28;20051;-62
2022/04/08 10:46:13;;;;;;;2.85;1.08;;;12.40;97.70;;;;;;5113146;28;20051;-65
2022/04/08 10:48:39;;;;;;;6.55;1.60;;;11.70;99.90;;;;;;5111691;28;20054;-64
2022/04/08 10:51:09;;;;;;;3.88;1.13;;;11.30;99.90;;;;;;5113228;28;20044;-66
2022/04/08 10:53:40;;;;;;;4.07;1.23;;;11.00;99.90;;;;;;5112940;28;20122;-72
2022/04/08 10:56:08;;;;;;;4.45;1.20;;;10.60;99.90;;;;;;5112957;28;20044;-65
2022/04/08 10:58:47;;;;;;;3.20;1.02;;;10.40;99.90;;;;;;5112663;28;20395;-72
2022/04/08 11:01:18;;;;;;;4.20;1.52;;;10.60;99.90;;;;;;5094624;28;20047;-65
2022/04/08 11:03:51;;;;;;;3.83;1.50;;;10.70;99.90;;;;;;5112332;28;20134;-65
2022/04/08 11:06:18;;;;;;;8.75;1.90;;;11.00;99.90;;;;;;5095388;28;20040;-66
2022/04/08 11:08:44;;;;;;;5.13;1.67;;;11.10;99.90;;;;;;5060740;28;20409;-66
2022/04/08 11:11:10;;;;;;;5.82;1.35;;;11.20;99.90;;;;;;5094364;28;20054;-67
2022/04/08 11:13:40;;;;;;;7.57;1.63;;;11.20;99.90;;;;;;5112284;28;20123;-71
2022/04/08 11:16:06;;;;;;;4.45;1.48;;;11.30;99.90;;;;;;5112656;28;20521;-63
2022/04/08 11:18:32;;;;;;;5.50;1.33;;;11.50;99.90;;;;;;5112569;28;20039;-65
2022/04/08 11:20:58;;;;;;;6.20;1.95;;;11.80;99.90;;;;;;5077432;28;20491;-64
2022/04/08 11:23:28;;;;;;;7.25;1.75;;;12.10;99.90;;;;;;5094169;28;20423;-65
2022/04/08 11:25:55;;;;;;;6.22;1.98;;;12.30;99.90;;;;;;5111917;28;20439;-64
2022/04/08 11:28:25;;;;;;;5.35;1.60;;;12.50;99.90;;;;;;5112369;28;20052;-63
2022/04/08 11:30:58;;;;;;;4.25;1.30;;;12.30;99.90;;;;;;5094253;28;20048;-68
2022/04/08 11:33:25;;;;;;;6.15;1.65;;;12.10;99.90;;;;;;5112508;28;20081;-65
2022/04/08 11:35:56;;;;;;;5.65;1.60;;;;;;;;;;5112064;28;20568;-66
2022/04/08 11:38:23;;;;;;;8.48;1.60;;;12.00;99.90;;;;;;5093936;28;20055;-64
2022/04/08 11:40:49;;;;;;;8.13;1.45;;;11.90;99.90;;;;;;5110494;28;20389;-68
2022/04/08 11:43:16;;;;;;;4.60;1.27;;;12.00;99.90;;;;;;5092466;28;20096;-70
2022/04/08 11:45:46;;;;;;;6.03;1.60;;;12.20;99.90;;;;;;5076127;28;20044;-72
2022/04/08 11:48:17;;;;;;;5.45;1.85;;;12.20;99.90;;;;;;5076353;28;20100;-66
2022/04/08 11:50:43;;;;;;;7.45;1.63;;;12.30;99.90;;;;;;5111098;28;20075;-73
2022/04/08 11:53:17;;;;;;;3.90;1.30;;;12.20;99.90;;;;;;5092699;28;20051;-67
2022/04/08 11:55:56;;;;;;;5.10;1.30;;;12.20;99.90;;;;;;5110724;28;20118;-73
2022/04/08 11:58:22;;;;;;;9.02;2.10;;;12.40;99.90;;;;;;5111266;28;20086;-67
2022/04/08 12:00:49;;;;;;;4.75;1.42;;;12.40;99.90;;;;;;5092601;28;20051;-65
2022/04/08 12:03:28;;;;;;;6.47;1.58;;;12.50;98.80;;;;;;5093098;28;20048;-64
2022/04/08 12:05:55;;;;;;;4.40;1.70;;;12.40;99.90;;;;;;5109652;28;20043;-68
2022/04/08 12:08:21;;;;;;;4.82;1.35;;;12.40;99.00;;;;;;5111183;28;20047;-66
2022/04/08 12:10:52;;;;;;;7.88;2.10;;;12.30;98.00;;;;;;5111087;28;20044;-67
2022/04/08 12:13:20;;;;;;;8.02;1.63;;;12.30;99.30;;;;;;5110773;28;20511;-65
2022/04/08 12:15:49;;;;;;;8.93;1.83;;;12.30;98.70;;;;;;5092473;28;20413;-71
2022/04/08 12:18:29;;;;;;;3.65;1.40;;;12.20;98.40;;;;;;5075827;28;20048;-68
2022/04/08 12:21:08;;;;;;;6.50;1.83;;;12.30;99.80;;;;;;5110114;28;20485;-66
2022/04/08 12:23:34;;;;;;;7.00;1.40;;;12.30;99.90;;;;;;5110601;28;20050;-64
2022/04/08 12:26:05;;;;;;;10.30;2.15;;;12.20;99.90;;;;;;5092101;28;20055;-65
2022/04/08 12:28:35;;;;;;;7.88;1.80;;;12.20;99.90;;;;;;5075822;28;20062;-66
2022/04/08 12:31:18;;;;;;;5.20;1.67;;;12.10;99.10;;;;;;5092299;28;20474;-64
2022/04/08 12:33:44;;;;;;;8.43;1.80;;;11.80;99.20;;;;;;5110734;28;20090;-65
2022/04/08 12:36:11;;;;;;;7.43;2.20;;;11.50;99.90;;;;;;5110251;28;20054;-71
2022/04/08 12:38:42;;;;;;;6.88;1.92;;;11.40;99.90;;;;;;5092769;28;20047;-64
2022/04/08 12:41:10;;;;;;;5.75;1.67;;;11.20;99.90;;;;;;5109912;28;20307;-64
2022/04/08 12:43:36;;;;;;;5.75;1.70;;;11.00;99.90;;;;;;5110998;28;20048;-65
2022/04/08 12:46:02;;;;;;;5.45;1.50;;;11.00;99.90;;;;;;5113972;28;20400;-64
2022/04/08 12:48:27;;;;;;;4.05;1.58;;;10.70;99.90;;;;;;5096859;28;20044;-65
2022/04/08 12:50:55;;;;;;;4.10;1.35;;;10.60;99.90;;;;;;5115158;28;20497;-64
2022/04/08 12:53:21;;;;;;;2.50;1.20;;;10.60;99.90;;;;;;5115233;28;20081;-64